sensor_id;sensor_type;location;lat;lon;timestamp;pressure;altitude;pressure_sealevel;temperature;humidity
21111;BME280;10713;51.912;4.494;2023-10-09T00:01:49;102043.78;;;17.55;100.00
21111;BME280;10713;51.912;4.494;2023-10-09T00:04:15;102047.47;;;17.52;100.00
21111;BME280;10713;51.912;4.494;2023-10-09T00:06:43;102049.41;;;17.49;100.00
21111;BME280;10713;51.912;4.494;2023-10-09T00:09:09;102049.63;;;17.44;100.00
21111;BME280;10713;51.912;4.494;2023-10-09T00:11:52;102046.91;;;17.46;100.00
21111;BME280;10713;51.912;4.494;2023-10-09T00:14:26;102047.66;;;17.48;100.00
21111;BME280;10713;51.912;4.494;2023-10-09T00:16:55;102048.56;;;17.48;100.00
21111;BME280;10713;51.912;4.494;2023-10-09T00:19:43;102042.91;;;17.54;100.00
21111;BME280;10713;51.912;4.494;2023-10-09T00:22:09;102034.00;;;17.54;100.00
21111;BME280;10713;51.912;4.494;2023-10-09T00:24:42;102039.69;;;17.65;100.00
21111;BME280;10713;51.912;4.494;2023-10-09T00:27:11;102039.94;;;17.61;100.00
21111;BME280;10713;51.912;4.494;2023-10-09T00:29:40;102045.91;;;17.66;100.00
21111;BME280;10713;51.912;4.494;2023-10-09T00:32:13;102044.97;;;17.67;100.00
21111;BME280;10713;51.912;4.494;2023-10-09T00:34:48;102032.09;;;17.75;100.00
21111;BME280;10713;51.912;4.494;2023-10-09T00:37:15;102030.28;;;17.75;100.00
21111;BME280;10713;51.912;4.494;2023-10-09T00:39:42;102033.69;;;17.79;100.00
21111;BME280;10713;51.912;4.494;2023-10-09T00:42:13;102035.28;;;17.83;100.00
21111;BME280;10713;51.912;4.494;2023-10-09T00:44:43;102032.44;;;17.86;100.00
21111;BME280;10713;51.912;4.494;2023-10-09T00:47:12;102028.59;;;17.92;100.00
21111;BME280;10713;51.912;4.494;2023-10-09T00:49:52;102033.50;;;17.65;100.00
21111;BME280;10713;51.912;4.494;2023-10-09T00:52:34;102033.97;;;17.37;100.00
21111;BME280;10713;51.912;4.494;2023-10-09T00:55:17;102042.94;;;17.36;100.00
21111;BME280;10713;51.912;4.494;2023-10-09T00:57:59;102036.75;;;17.35;100.00
21111;BME280;10713;51.912;4.494;2023-10-09T01:00:26;102035.88;;;17.34;100.00
21111;BME280;10713;51.912;4.494;2023-10-09T01:03:02;102035.78;;;17.36;100.00
21111;BME280;10713;51.912;4.494;2023-10-09T01:05:44;102038.41;;;17.38;100.00
21111;BME280;10713;51.912;4.494;2023-10-09T01:08:28;102031.09;;;17.41;100.00
21111;BME280;10713;51.912;4.494;2023-10-09T01:11:16;102028.28;;;17.44;100.00
21111;BME280;10713;51.912;4.494;2023-10-09T01:13:49;102028.22;;;17.46;100.00
21111;BME280;10713;51.912;4.494;2023-10-09T01:16:19;102031.75;;;17.46;100.00
21111;BME280;10713;51.912;4.494;2023-10-09T01:21:15;102008.53;;;17.48;100.00
21111;BME280;10713;51.912;4.494;2023-10-09T01:23:45;102010.25;;;17.49;100.00
21111;BME280;10713;51.912;4.494;2023-10-09T01:29:17;102009.38;;;17.49;100.00
21111;BME280;10713;51.912;4.494;2023-10-09T01:31:47;102008.38;;;17.51;100.00
21111;BME280;10713;51.912;4.494;2023-10-09T01:34:29;101997.59;;;17.53;100.00
21111;BME280;10713;51.912;4.494;2023-10-09T01:39:54;101991.31;;;17.54;100.00
21111;BME280;10713;51.912;4.494;2023-10-09T01:42:23;101979.59;;;17.56;100.00
21111;BME280;10713;51.912;4.494;2023-10-09T01:45:10;101984.03;;;17.58;100.00
21111;BME280;10713;51.912;4.494;2023-10-09T01:47:41;101989.22;;;17.61;100.00
21111;BME280;10713;51.912;4.494;2023-10-09T01:50:16;101969.50;;;17.63;100.00
21111;BME280;10713;51.912;4.494;2023-10-09T01:52:45;101971.16;;;17.66;100.00
21111;BME280;10713;51.912;4.494;2023-10-09T01:55:11;101973.72;;;17.67;100.00
21111;BME280;10713;51.912;4.494;2023-10-09T01:57:55;101973.66;;;17.69;100.00
21111;BME280;10713;51.912;4.494;2023-10-09T02:00:23;101979.72;;;17.72;100.00
21111;BME280;10713;51.912;4.494;2023-10-09T02:02:49;101973.41;;;17.73;100.00
21111;BME280;10713;51.912;4.494;2023-10-09T02:05:15;101976.94;;;17.74;100.00
21111;BME280;10713;51.912;4.494;2023-10-09T02:07:41;101975.00;;;17.77;100.00
21111;BME280;10713;51.912;4.494;2023-10-09T02:10:11;101965.22;;;17.78;100.00
21111;BME280;10713;51.912;4.494;2023-10-09T02:12:51;101969.44;;;17.82;100.00
21111;BME280;10713;51.912;4.494;2023-10-09T02:15:30;101966.75;;;17.82;100.00
21111;BME280;10713;51.912;4.494;2023-10-09T02:18:20;101970.22;;;17.84;100.00
21111;BME280;10713;51.912;4.494;2023-10-09T02:20:49;101958.59;;;17.85;100.00
21111;BME280;10713;51.912;4.494;2023-10-09T02:23:41;101956.81;;;17.86;100.00
21111;BME280;10713;51.912;4.494;2023-10-09T02:26:10;101959.53;;;17.84;100.00
21111;BME280;10713;51.912;4.494;2023-10-09T02:28:42;101964.88;;;17.84;100.00
21111;BME280;10713;51.912;4.494;2023-10-09T02:31:18;101964.03;;;17.84;100.00
21111;BME280;10713;51.912;4.494;2023-10-09T02:33:47;101967.72;;;17.81;100.00
21111;BME280;10713;51.912;4.494;2023-10-09T02:36:15;101969.53;;;17.81;100.00
21111;BME280;10713;51.912;4.494;2023-10-09T02:38:40;101964.25;;;17.79;100.00
21111;BME280;10713;51.912;4.494;2023-10-09T02:41:08;101966.91;;;17.79;100.00
21111;BME280;10713;51.912;4.494;2023-10-09T02:43:39;101960.72;;;17.78;100.00
21111;BME280;10713;51.912;4.494;2023-10-09T02:46:19;101966.06;;;17.78;100.00
21111;BME280;10713;51.912;4.494;2023-10-09T02:48:46;101957.09;;;17.79;100.00
21111;BME280;10713;51.912;4.494;2023-10-09T02:51:22;101952.66;;;17.80;100.00
21111;BME280;10713;51.912;4.494;2023-10-09T02:54:01;101956.25;;;17.79;100.00
21111;BME280;10713;51.912;4.494;2023-10-09T02:56:53;101948.22;;;17.79;100.00
21111;BME280;10713;51.912;4.494;2023-10-09T02:59:31;101941.16;;;17.78;100.00
21111;BME280;10713;51.912;4.494;2023-10-09T03:01:56;101949.19;;;17.78;100.00
21111;BME280;10713;51.912;4.494;2023-10-09T03:04:28;101934.94;;;17.77;100.00
21111;BME280;10713;51.912;4.494;2023-10-09T03:07:02;101943.88;;;17.76;100.00
21111;BME280;10713;51.912;4.494;2023-10-09T03:09:29;101956.31;;;17.77;100.00
21111;BME280;10713;51.912;4.494;2023-10-09T03:11:59;101938.50;;;17.78;100.00
21111;BME280;10713;51.912;4.494;2023-10-09T03:14:28;101948.22;;;17.79;100.00
21111;BME280;10713;51.912;4.494;2023-10-09T03:16:58;101927.84;;;17.76;100.00
21111;BME280;10713;51.912;4.494;2023-10-09T03:19:25;101934.88;;;17.79;100.00
21111;BME280;10713;51.912;4.494;2023-10-09T03:21:55;101926.06;;;17.77;100.00
21111;BME280;10713;51.912;4.494;2023-10-09T03:24:25;101925.16;;;17.78;100.00
21111;BME280;10713;51.912;4.494;2023-10-09T03:26:52;101925.28;;;17.75;100.00
21111;BME280;10713;51.912;4.494;2023-10-09T03:29:21;101919.13;;;17.73;100.00
21111;BME280;10713;51.912;4.494;2023-10-09T03:31:46;101924.66;;;17.70;100.00
21111;BME280;10713;51.912;4.494;2023-10-09T03:34:12;101924.81;;;17.67;100.00
21111;BME280;10713;51.912;4.494;2023-10-09T03:36:37;101937.47;;;17.63;100.00
21111;BME280;10713;51.912;4.494;2023-10-09T03:39:07;101954.56;;;17.59;100.00
21111;BME280;10713;51.912;4.494;2023-10-09T03:41:52;101964.38;;;17.59;100.00
21111;BME280;10713;51.912;4.494;2023-10-09T03:44:19;101968.94;;;17.56;100.00
21111;BME280;10713;51.912;4.494;2023-10-09T03:46:45;101974.03;;;17.61;100.00
21111;BME280;10713;51.912;4.494;2023-10-09T03:49:11;101981.91;;;17.64;100.00
21111;BME280;10713;51.912;4.494;2023-10-09T03:51:38;101982.69;;;17.66;100.00
21111;BME280;10713;51.912;4.494;2023-10-09T03:54:04;101975.53;;;17.67;100.00
21111;BME280;10713;51.912;4.494;2023-10-09T03:56:33;101971.06;;;17.67;100.00
21111;BME280;10713;51.912;4.494;2023-10-09T03:58:58;101972.88;;;17.67;100.00
21111;BME280;10713;51.912;4.494;2023-10-09T04:01:24;101969.41;;;17.65;100.00
21111;BME280;10713;51.912;4.494;2023-10-09T04:03:57;101950.72;;;17.65;100.00
21111;BME280;10713;51.912;4.494;2023-10-09T04:06:29;101962.19;;;17.67;100.00
21111;BME280;10713;51.912;4.494;2023-10-09T04:09:08;101965.03;;;17.64;100.00
21111;BME280;10713;51.912;4.494;2023-10-09T04:11:49;101970.53;;;17.61;100.00
21111;BME280;10713;51.912;4.494;2023-10-09T04:14:33;101973.41;;;17.56;100.00
21111;BME280;10713;51.912;4.494;2023-10-09T04:16:59;101967.28;;;17.54;100.00
21111;BME280;10713;51.912;4.494;2023-10-09T04:19:29;101954.97;;;17.51;100.00
21111;BME280;10713;51.912;4.494;2023-10-09T04:22:02;101952.47;;;17.48;100.00
21111;BME280;10713;51.912;4.494;2023-10-09T04:24:31;101922.31;;;17.46;100.00
21111;BME280;10713;51.912;4.494;2023-10-09T04:27:06;101935.41;;;17.51;100.00
21111;BME280;10713;51.912;4.494;2023-10-09T04:29:33;101928.19;;;17.53;100.00
21111;BME280;10713;51.912;4.494;2023-10-09T04:32:05;101926.31;;;17.55;100.00
21111;BME280;10713;51.912;4.494;2023-10-09T04:34:41;101928.13;;;17.54;100.00
21111;BME280;10713;51.912;4.494;2023-10-09T04:37:36;101929.91;;;17.54;100.00
21111;BME280;10713;51.912;4.494;2023-10-09T04:40:04;101935.88;;;17.59;100.00
21111;BME280;10713;51.912;4.494;2023-10-09T04:42:49;101943.41;;;17.68;100.00
21111;BME280;10713;51.912;4.494;2023-10-09T04:45:23;101946.22;;;17.65;100.00
21111;BME280;10713;51.912;4.494;2023-10-09T04:48:07;101947.88;;;17.68;100.00
21111;BME280;10713;51.912;4.494;2023-10-09T04:50:34;101945.06;;;17.71;100.00
21111;BME280;10713;51.912;4.494;2023-10-09T04:53:00;101960.06;;;17.73;100.00
21111;BME280;10713;51.912;4.494;2023-10-09T04:55:37;101967.91;;;17.76;100.00
21111;BME280;10713;51.912;4.494;2023-10-09T04:58:03;101967.06;;;17.76;100.00
21111;BME280;10713;51.912;4.494;2023-10-09T05:00:49;101975.78;;;17.79;100.00
21111;BME280;10713;51.912;4.494;2023-10-09T05:03:28;101964.31;;;17.77;100.00
21111;BME280;10713;51.912;4.494;2023-10-09T05:05:55;101969.66;;;17.77;100.00
21111;BME280;10713;51.912;4.494;2023-10-09T05:08:24;101977.72;;;17.76;100.00
21111;BME280;10713;51.912;4.494;2023-10-09T05:10:55;101972.41;;;17.76;100.00
21111;BME280;10713;51.912;4.494;2023-10-09T05:13:24;101989.25;;;17.78;100.00
21111;BME280;10713;51.912;4.494;2023-10-09T05:16:21;101989.28;;;17.76;100.00
21111;BME280;10713;51.912;4.494;2023-10-09T05:18:48;101999.97;;;17.76;100.00
21111;BME280;10713;51.912;4.494;2023-10-09T05:21:36;101997.28;;;17.76;100.00
21111;BME280;10713;51.912;4.494;2023-10-09T05:24:10;101982.16;;;17.77;100.00
21111;BME280;10713;51.912;4.494;2023-10-09T05:26:49;101988.41;;;17.76;100.00
21111;BME280;10713;51.912;4.494;2023-10-09T05:29:16;101986.69;;;17.75;100.00
21111;BME280;10713;51.912;4.494;2023-10-09T05:31:48;101986.69;;;17.75;100.00
21111;BME280;10713;51.912;4.494;2023-10-09T05:34:26;101985.84;;;17.74;100.00
21111;BME280;10713;51.912;4.494;2023-10-09T05:37:10;101982.47;;;17.88;100.00
21111;BME280;10713;51.912;4.494;2023-10-09T05:39:52;101978.22;;;18.01;100.00
21111;BME280;10713;51.912;4.494;2023-10-09T05:45:11;101977.13;;;18.06;100.00
21111;BME280;10713;51.912;4.494;2023-10-09T05:50:27;101974.38;;;17.72;100.00
21111;BME280;10713;51.912;4.494;2023-10-09T05:52:54;101969.09;;;17.71;100.00
21111;BME280;10713;51.912;4.494;2023-10-09T05:55:21;101961.22;;;17.68;100.00
21111;BME280;10713;51.912;4.494;2023-10-09T05:57:58;101959.59;;;17.65;100.00
21111;BME280;10713;51.912;4.494;2023-10-09T06:00:42;101949.47;;;18.07;100.00
21111;BME280;10713;51.912;4.494;2023-10-09T06:03:27;101939.28;;;17.80;100.00
21111;BME280;10713;51.912;4.494;2023-10-09T06:06:10;101945.31;;;17.66;100.00
21111;BME280;10713;51.912;4.494;2023-10-09T06:08:43;101946.97;;;17.69;100.00
21111;BME280;10713;51.912;4.494;2023-10-09T06:11:12;101938.94;;;17.69;100.00
21111;BME280;10713;51.912;4.494;2023-10-09T06:13:58;101951.34;;;17.70;100.00
21111;BME280;10713;51.912;4.494;2023-10-09T06:16:37;101941.78;;;17.66;100.00
21111;BME280;10713;51.912;4.494;2023-10-09T06:19:22;101938.97;;;17.86;100.00
21111;BME280;10713;51.912;4.494;2023-10-09T06:21:47;101928.59;;;17.97;100.00
21111;BME280;10713;51.912;4.494;2023-10-09T06:24:19;101913.44;;;17.81;100.00
21111;BME280;10713;51.912;4.494;2023-10-09T06:26:45;101920.78;;;17.93;100.00
21111;BME280;10713;51.912;4.494;2023-10-09T06:29:29;101939.59;;;17.91;100.00
21111;BME280;10713;51.912;4.494;2023-10-09T06:32:08;101943.00;;;18.11;100.00
21111;BME280;10713;51.912;4.494;2023-10-09T06:34:53;101947.03;;;18.35;100.00
21111;BME280;10713;51.912;4.494;2023-10-09T06:37:25;101953.69;;;18.11;100.00
21111;BME280;10713;51.912;4.494;2023-10-09T06:39:51;101956.41;;;18.27;100.00
21111;BME280;10713;51.912;4.494;2023-10-09T06:42:22;101971.81;;;18.21;100.00
21111;BME280;10713;51.912;4.494;2023-10-09T06:45:08;101993.25;;;18.37;100.00
21111;BME280;10713;51.912;4.494;2023-10-09T06:47:37;101992.84;;;18.12;100.00
21111;BME280;10713;51.912;4.494;2023-10-09T06:50:19;101975.31;;;18.06;100.00
21111;BME280;10713;51.912;4.494;2023-10-09T06:52:51;101985.91;;;18.08;100.00
21111;BME280;10713;51.912;4.494;2023-10-09T06:55:27;101980.50;;;18.09;100.00
21111;BME280;10713;51.912;4.494;2023-10-09T06:58:01;101987.94;;;18.20;100.00
21111;BME280;10713;51.912;4.494;2023-10-09T07:00:27;101987.22;;;18.16;100.00
21111;BME280;10713;51.912;4.494;2023-10-09T07:03:11;102007.34;;;18.23;100.00
21111;BME280;10713;51.912;4.494;2023-10-09T07:05:38;101995.47;;;18.29;100.00
21111;BME280;10713;51.912;4.494;2023-10-09T07:08:23;101977.28;;;18.36;100.00
21111;BME280;10713;51.912;4.494;2023-10-09T07:11:01;101979.72;;;18.40;100.00
21111;BME280;10713;51.912;4.494;2023-10-09T07:13:45;101979.56;;;18.43;100.00
21111;BME280;10713;51.912;4.494;2023-10-09T07:16:22;101973.09;;;18.48;100.00
21111;BME280;10713;51.912;4.494;2023-10-09T07:19:06;101942.66;;;18.50;100.00
21111;BME280;10713;51.912;4.494;2023-10-09T07:21:36;101962.66;;;18.59;100.00
21111;BME280;10713;51.912;4.494;2023-10-09T07:24:04;101970.44;;;18.63;100.00
21111;BME280;10713;51.912;4.494;2023-10-09T07:26:40;101966.63;;;18.67;100.00
21111;BME280;10713;51.912;4.494;2023-10-09T07:29:13;101966.56;;;18.69;100.00
21111;BME280;10713;51.912;4.494;2023-10-09T07:31:42;101976.22;;;18.72;100.00
21111;BME280;10713;51.912;4.494;2023-10-09T07:34:11;101972.53;;;18.74;100.00
21111;BME280;10713;51.912;4.494;2023-10-09T07:36:56;101970.47;;;18.79;100.00
21111;BME280;10713;51.912;4.494;2023-10-09T07:39:22;101976.44;;;18.84;100.00
21111;BME280;10713;51.912;4.494;2023-10-09T07:41:48;101967.63;;;18.98;100.00
21111;BME280;10713;51.912;4.494;2023-10-09T07:44:43;101966.84;;;18.96;100.00
21111;BME280;10713;51.912;4.494;2023-10-09T07:47:18;101973.78;;;19.00;100.00
21111;BME280;10713;51.912;4.494;2023-10-09T07:50:11;101961.84;;;19.06;100.00
21111;BME280;10713;51.912;4.494;2023-10-09T07:52:46;101958.72;;;19.13;100.00
21111;BME280;10713;51.912;4.494;2023-10-09T07:55:11;101951.03;;;19.23;100.00
21111;BME280;10713;51.912;4.494;2023-10-09T07:57:54;101963.69;;;19.35;100.00
21111;BME280;10713;51.912;4.494;2023-10-09T08:00:19;101947.69;;;19.50;100.00
21111;BME280;10713;51.912;4.494;2023-10-09T08:03:22;101958.72;;;19.90;100.00
21111;BME280;10713;51.912;4.494;2023-10-09T08:05:51;101943.44;;;20.35;100.00
21111;BME280;10713;51.912;4.494;2023-10-09T08:08:32;101940.09;;;20.87;100.00
21111;BME280;10713;51.912;4.494;2023-10-09T08:11:00;101935.81;;;21.39;100.00
21111;BME280;10713;51.912;4.494;2023-10-09T08:13:44;101936.63;;;21.66;100.00
21111;BME280;10713;51.912;4.494;2023-10-09T08:16:22;101934.66;;;21.68;100.00
21111;BME280;10713;51.912;4.494;2023-10-09T08:18:49;101938.22;;;21.69;100.00
21111;BME280;10713;51.912;4.494;2023-10-09T08:21:19;101944.13;;;21.74;100.00
21111;BME280;10713;51.912;4.494;2023-10-09T08:24:07;101935.31;;;21.72;100.00
21111;BME280;10713;51.912;4.494;2023-10-09T08:26:53;101952.84;;;21.77;100.00
21111;BME280;10713;51.912;4.494;2023-10-09T08:29:38;101962.09;;;21.86;100.00
21111;BME280;10713;51.912;4.494;2023-10-09T08:32:03;101973.84;;;22.11;100.00
21111;BME280;10713;51.912;4.494;2023-10-09T08:34:43;102006.03;;;22.25;100.00
21111;BME280;10713;51.912;4.494;2023-10-09T08:37:18;101999.25;;;22.45;100.00
21111;BME280;10713;51.912;4.494;2023-10-09T08:39:44;101995.66;;;22.70;100.00
21111;BME280;10713;51.912;4.494;2023-10-09T08:42:10;101995.63;;;22.96;100.00
21111;BME280;10713;51.912;4.494;2023-10-09T08:44:36;102000.56;;;23.02;100.00
21111;BME280;10713;51.912;4.494;2023-10-09T08:47:04;101984.63;;;22.99;100.00
21111;BME280;10713;51.912;4.494;2023-10-09T08:49:31;101991.69;;;23.12;100.00
21111;BME280;10713;51.912;4.494;2023-10-09T08:51:58;101995.28;;;23.24;100.00
21111;BME280;10713;51.912;4.494;2023-10-09T08:54:28;102003.44;;;23.35;100.00
21111;BME280;10713;51.912;4.494;2023-10-09T08:56:58;102015.81;;;23.38;100.00
21111;BME280;10713;51.912;4.494;2023-10-09T08:59:23;102016.16;;;23.33;100.00
21111;BME280;10713;51.912;4.494;2023-10-09T09:01:50;102025.72;;;23.37;100.00
21111;BME280;10713;51.912;4.494;2023-10-09T09:04:36;102022.69;;;23.42;100.00
21111;BME280;10713;51.912;4.494;2023-10-09T09:07:04;102029.69;;;23.45;100.00
21111;BME280;10713;51.912;4.494;2023-10-09T09:09:29;102031.81;;;23.52;100.00
21111;BME280;10713;51.912;4.494;2023-10-09T09:11:57;102026.06;;;23.57;100.00
21111;BME280;10713;51.912;4.494;2023-10-09T09:14:35;102034.72;;;23.49;100.00
21111;BME280;10713;51.912;4.494;2023-10-09T09:17:02;102031.44;;;23.57;100.00
21111;BME280;10713;51.912;4.494;2023-10-09T09:19:32;102029.16;;;23.64;100.00
21111;BME280;10713;51.912;4.494;2023-10-09T09:21:58;102034.91;;;23.59;100.00
21111;BME280;10713;51.912;4.494;2023-10-09T09:24:57;102028.38;;;23.50;100.00
21111;BME280;10713;51.912;4.494;2023-10-09T09:27:43;102025.94;;;23.58;100.00
21111;BME280;10713;51.912;4.494;2023-10-09T09:30:28;102036.69;;;23.71;100.00
21111;BME280;10713;51.912;4.494;2023-10-09T09:33:24;102029.00;;;23.89;100.00
21111;BME280;10713;51.912;4.494;2023-10-09T09:36:04;102015.53;;;23.89;100.00
21111;BME280;10713;51.912;4.494;2023-10-09T09:38:34;102024.09;;;23.83;100.00
21111;BME280;10713;51.912;4.494;2023-10-09T09:41:17;102026.78;;;23.83;100.00
21111;BME280;10713;51.912;4.494;2023-10-09T09:43:56;102032.31;;;23.81;100.00
21111;BME280;10713;51.912;4.494;2023-10-09T09:46:22;102025.56;;;23.76;100.00
21111;BME280;10713;51.912;4.494;2023-10-09T09:49:02;102030.09;;;23.75;100.00
21111;BME280;10713;51.912;4.494;2023-10-09T09:51:31;102015.06;;;23.84;100.00
21111;BME280;10713;51.912;4.494;2023-10-09T09:53:56;102016.91;;;23.95;100.00
21111;BME280;10713;51.912;4.494;2023-10-09T09:56:26;102009.19;;;23.90;100.00
21111;BME280;10713;51.912;4.494;2023-10-09T09:58:53;102014.94;;;23.97;100.00
21111;BME280;10713;51.912;4.494;2023-10-09T10:01:26;102016.53;;;23.99;100.00
21111;BME280;10713;51.912;4.494;2023-10-09T10:04:05;102015.56;;;24.00;100.00
21111;BME280;10713;51.912;4.494;2023-10-09T10:06:37;102016.19;;;23.93;100.00
21111;BME280;10713;51.912;4.494;2023-10-09T10:09:06;102018.97;;;23.91;100.00
21111;BME280;10713;51.912;4.494;2023-10-09T10:11:42;102012.81;;;23.78;100.00
21111;BME280;10713;51.912;4.494;2023-10-09T10:14:09;102018.66;;;23.72;100.00
21111;BME280;10713;51.912;4.494;2023-10-09T10:17:02;102023.13;;;23.60;100.00
21111;BME280;10713;51.912;4.494;2023-10-09T10:22:28;102025.28;;;23.55;100.00
21111;BME280;10713;51.912;4.494;2023-10-09T10:24:56;102028.50;;;23.60;100.00
21111;BME280;10713;51.912;4.494;2023-10-09T10:27:25;102038.69;;;23.56;100.00
21111;BME280;10713;51.912;4.494;2023-10-09T10:32:56;102028.25;;;23.76;100.00
21111;BME280;10713;51.912;4.494;2023-10-09T10:35:23;102014.69;;;23.89;100.00
21111;BME280;10713;51.912;4.494;2023-10-09T10:40:50;102007.69;;;24.44;100.00
21111;BME280;10713;51.912;4.494;2023-10-09T10:43:23;102018.47;;;24.66;100.00
21111;BME280;10713;51.912;4.494;2023-10-09T10:46:07;102028.81;;;24.72;100.00
21111;BME280;10713;51.912;4.494;2023-10-09T10:48:50;102025.22;;;24.72;100.00
21111;BME280;10713;51.912;4.494;2023-10-09T10:51:27;102036.91;;;24.61;100.00
21111;BME280;10713;51.912;4.494;2023-10-09T10:54:06;102039.47;;;24.52;100.00
21111;BME280;10713;51.912;4.494;2023-10-09T10:56:58;102039.84;;;24.58;100.00
21111;BME280;10713;51.912;4.494;2023-10-09T10:59:25;102042.31;;;24.61;100.00
21111;BME280;10713;51.912;4.494;2023-10-09T11:01:59;102042.41;;;24.60;100.00
21111;BME280;10713;51.912;4.494;2023-10-09T11:04:28;102040.81;;;24.46;100.00
21111;BME280;10713;51.912;4.494;2023-10-09T11:07:01;102046.53;;;24.41;100.00
21111;BME280;10713;51.912;4.494;2023-10-09T11:09:49;102044.44;;;24.34;100.00
21111;BME280;10713;51.912;4.494;2023-10-09T11:12:50;102039.53;;;24.27;100.00
21111;BME280;10713;51.912;4.494;2023-10-09T11:15:35;102033.53;;;24.24;100.00
21111;BME280;10713;51.912;4.494;2023-10-09T11:18:22;102036.25;;;24.35;100.00
21111;BME280;10713;51.912;4.494;2023-10-09T11:20:57;102024.06;;;24.41;100.00
21111;BME280;10713;51.912;4.494;2023-10-09T11:23:28;102027.94;;;24.49;100.00
21111;BME280;10713;51.912;4.494;2023-10-09T11:26:05;102022.31;;;24.53;100.00
21111;BME280;10713;51.912;4.494;2023-10-09T11:29:10;102015.16;;;24.52;100.00
21111;BME280;10713;51.912;4.494;2023-10-09T11:32:05;102012.97;;;24.57;100.00
21111;BME280;10713;51.912;4.494;2023-10-09T11:34:31;102010.88;;;24.71;100.00
21111;BME280;10713;51.912;4.494;2023-10-09T11:37:02;102010.00;;;24.71;100.00
21111;BME280;10713;51.912;4.494;2023-10-09T11:39:32;102012.97;;;24.68;100.00
21111;BME280;10713;51.912;4.494;2023-10-09T11:42:04;102012.72;;;24.71;100.00
21111;BME280;10713;51.912;4.494;2023-10-09T11:44:38;102014.81;;;24.67;100.00
21111;BME280;10713;51.912;4.494;2023-10-09T11:47:05;102012.84;;;24.58;100.00
21111;BME280;10713;51.912;4.494;2023-10-09T11:49:50;102009.50;;;24.43;100.00
21111;BME280;10713;51.912;4.494;2023-10-09T11:52:22;102008.75;;;24.30;100.00
21111;BME280;10713;51.912;4.494;2023-10-09T11:55:00;102011.06;;;24.23;100.00
21111;BME280;10713;51.912;4.494;2023-10-09T11:57:28;102010.59;;;24.18;100.00
21111;BME280;10713;51.912;4.494;2023-10-09T11:59:57;102007.63;;;24.10;100.00
21111;BME280;10713;51.912;4.494;2023-10-09T12:02:25;102013.84;;;23.99;100.00
21111;BME280;10713;51.912;4.494;2023-10-09T12:04:51;102013.81;;;23.88;100.00
21111;BME280;10713;51.912;4.494;2023-10-09T12:07:17;102011.00;;;23.66;100.00
21111;BME280;10713;51.912;4.494;2023-10-09T12:09:45;102014.75;;;23.52;100.00
21111;BME280;10713;51.912;4.494;2023-10-09T12:12:12;102020.84;;;23.43;100.00
21111;BME280;10713;51.912;4.494;2023-10-09T12:14:38;102012.00;;;23.41;100.00
21111;BME280;10713;51.912;4.494;2023-10-09T12:17:05;102015.81;;;23.38;100.00
21111;BME280;10713;51.912;4.494;2023-10-09T12:19:35;102010.63;;;23.35;100.00
21111;BME280;10713;51.912;4.494;2023-10-09T12:22:01;102011.84;;;23.31;100.00
21111;BME280;10713;51.912;4.494;2023-10-09T12:24:29;102011.63;;;23.34;100.00
21111;BME280;10713;51.912;4.494;2023-10-09T12:26:55;102009.31;;;23.41;100.00
21111;BME280;10713;51.912;4.494;2023-10-09T12:29:21;102004.34;;;23.47;100.00
21111;BME280;10713;51.912;4.494;2023-10-09T12:31:48;102001.94;;;23.55;100.00
21111;BME280;10713;51.912;4.494;2023-10-09T12:34:16;102004.50;;;23.57;100.00
21111;BME280;10713;51.912;4.494;2023-10-09T12:36:47;102000.31;;;23.53;100.00
21111;BME280;10713;51.912;4.494;2023-10-09T12:39:14;102001.47;;;23.61;100.00
21111;BME280;10713;51.912;4.494;2023-10-09T12:41:44;102005.09;;;23.60;100.00
21111;BME280;10713;51.912;4.494;2023-10-09T12:44:10;101996.03;;;23.50;100.00
21111;BME280;10713;51.912;4.494;2023-10-09T12:46:44;101995.34;;;23.35;100.00
21111;BME280;10713;51.912;4.494;2023-10-09T12:49:19;102012.59;;;23.33;100.00
21111;BME280;10713;51.912;4.494;2023-10-09T12:51:50;102014.69;;;23.29;100.00
21111;BME280;10713;51.912;4.494;2023-10-09T12:54:15;102019.19;;;23.29;100.00
21111;BME280;10713;51.912;4.494;2023-10-09T12:56:41;102016.63;;;23.27;100.00
21111;BME280;10713;51.912;4.494;2023-10-09T12:59:06;102019.31;;;23.27;100.00
21111;BME280;10713;51.912;4.494;2023-10-09T13:01:33;102017.56;;;23.26;100.00
21111;BME280;10713;51.912;4.494;2023-10-09T13:04:08;102019.63;;;23.23;100.00
21111;BME280;10713;51.912;4.494;2023-10-09T13:06:39;102020.31;;;23.13;100.00
21111;BME280;10713;51.912;4.494;2023-10-09T13:09:12;102017.69;;;23.01;100.00
21111;BME280;10713;51.912;4.494;2023-10-09T13:11:43;102010.81;;;22.84;100.00
21111;BME280;10713;51.912;4.494;2023-10-09T13:14:13;102012.44;;;22.74;100.00
21111;BME280;10713;51.912;4.494;2023-10-09T13:16:48;102019.13;;;22.68;100.00
21111;BME280;10713;51.912;4.494;2023-10-09T13:19:17;102018.94;;;22.58;100.00
21111;BME280;10713;51.912;4.494;2023-10-09T13:21:43;102016.88;;;22.49;100.00
21111;BME280;10713;51.912;4.494;2023-10-09T13:24:09;102013.66;;;22.44;100.00
21111;BME280;10713;51.912;4.494;2023-10-09T13:26:45;102020.13;;;22.41;100.00
21111;BME280;10713;51.912;4.494;2023-10-09T13:29:12;102009.16;;;22.44;100.00
21111;BME280;10713;51.912;4.494;2023-10-09T13:31:39;102018.16;;;22.56;100.00
21111;BME280;10713;51.912;4.494;2023-10-09T13:34:05;102010.72;;;22.60;100.00
21111;BME280;10713;51.912;4.494;2023-10-09T13:36:40;102009.22;;;22.68;100.00